createdAt,value
2019-01-18T00:01:22.788Z,2.10
2019-01-18T00:03:50.020Z,3.23
2019-01-18T00:06:17.286Z,1.83
2019-01-18T00:08:44.629Z,2.07
2019-01-18T00:11:11.880Z,5.07
2019-01-18T00:13:39.050Z,2.40
2019-01-18T00:16:06.316Z,2.27
2019-01-18T00:18:33.586Z,3.00
2019-01-18T00:21:00.790Z,2.37
2019-01-18T00:23:28.767Z,2.10
2019-01-18T00:25:56.086Z,3.03
2019-01-18T00:28:23.271Z,2.27
2019-01-18T00:30:50.541Z,2.33
2019-01-18T00:33:17.764Z,1.83
2019-01-18T00:35:45.011Z,2.83
2019-01-18T00:38:12.168Z,3.10
2019-01-18T00:40:39.297Z,3.47
2019-01-18T00:43:06.475Z,4.40
2019-01-18T00:45:33.742Z,2.87
2019-01-18T00:48:01.019Z,4.30
2019-01-18T00:50:28.239Z,3.80
2019-01-18T00:52:55.528Z,5.63
2019-01-18T00:55:22.653Z,2.77
2019-01-18T00:57:49.792Z,4.63
2019-01-18T01:00:19.909Z,2.33
2019-01-18T01:02:47.148Z,3.77
2019-01-18T01:05:15.110Z,4.30
2019-01-18T01:07:42.338Z,5.60
2019-01-18T01:10:09.894Z,3.70
2019-01-18T01:12:37.128Z,3.17
2019-01-18T01:15:06.680Z,3.80
2019-01-18T01:17:33.982Z,2.70
2019-01-18T01:20:01.234Z,2.00
2019-01-18T01:22:28.412Z,2.10
2019-01-18T01:24:55.649Z,3.40
2019-01-18T01:27:22.870Z,2.57
2019-01-18T01:29:50.156Z,2.03
2019-01-18T01:32:17.488Z,1.80
2019-01-18T01:34:44.730Z,1.70
2019-01-18T01:37:12.021Z,1.50
2019-01-18T01:39:39.143Z,1.40
2019-01-18T01:42:06.420Z,1.43
2019-01-18T01:44:33.639Z,2.87
2019-01-18T01:47:00.911Z,2.00
2019-01-18T01:49:28.179Z,1.53
2019-01-18T01:51:55.433Z,1.40
2019-01-18T01:54:22.574Z,4.70
2019-01-18T01:56:49.839Z,1.83
2019-01-18T01:59:17.157Z,2.53
2019-01-18T02:01:44.421Z,1.70
2019-01-18T02:04:11.695Z,2.67
2019-01-18T02:06:39.010Z,2.03
2019-01-18T02:09:06.539Z,3.27
2019-01-18T02:11:33.829Z,2.90
2019-01-18T02:14:01.082Z,2.03
2019-01-18T02:16:28.364Z,2.40
2019-01-18T02:18:55.495Z,1.73
2019-01-18T02:21:22.736Z,1.90
2019-01-18T02:23:49.971Z,3.97
2019-01-18T02:26:17.132Z,2.17
2019-01-18T02:28:44.436Z,2.43
2019-01-18T02:31:11.583Z,2.27
2019-01-18T02:33:38.823Z,2.50
2019-01-18T02:36:05.990Z,4.57
2019-01-18T02:38:33.236Z,2.83
2019-01-18T02:41:00.502Z,2.90
2019-01-18T02:43:27.770Z,2.60
2019-01-18T02:45:54.922Z,4.77
2019-01-18T02:48:22.155Z,3.43
2019-01-18T02:50:49.849Z,5.30
2019-01-18T02:53:17.088Z,5.70
2019-01-18T02:55:44.338Z,3.63
2019-01-18T02:58:11.604Z,4.40
2019-01-18T03:00:38.841Z,3.73
2019-01-18T03:03:06.102Z,4.00
2019-01-18T03:05:33.338Z,3.80
2019-01-18T03:08:00.688Z,2.90
2019-01-18T03:10:29.206Z,4.23
2019-01-18T03:12:56.441Z,3.23
2019-01-18T03:15:23.582Z,7.10
2019-01-18T03:17:50.859Z,3.20
2019-01-18T03:20:18.157Z,4.67
2019-01-18T03:22:45.661Z,3.37
2019-01-18T03:25:15.537Z,3.20
2019-01-18T03:27:42.813Z,6.83
2019-01-18T03:30:19.027Z,3.20
2019-01-18T03:32:41.667Z,4.97
2019-01-18T03:35:10.581Z,3.53
2019-01-18T03:37:37.935Z,4.23
2019-01-18T03:40:05.094Z,4.53
2019-01-18T03:42:32.369Z,5.53
2019-01-18T03:44:59.533Z,3.63
2019-01-18T03:47:26.702Z,3.30
2019-01-18T03:49:53.987Z,3.53
2019-01-18T03:52:21.113Z,3.67
2019-01-18T03:54:48.346Z,3.50
2019-01-18T03:57:15.578Z,3.53
2019-01-18T03:59:42.830Z,4.33
2019-01-18T04:02:10.127Z,4.17
2019-01-18T04:04:37.255Z,4.90
2019-01-18T04:07:04.599Z,3.37
2019-01-18T04:09:31.829Z,4.17
2019-01-18T04:11:59.080Z,4.23
2019-01-18T04:14:26.320Z,3.77
2019-01-18T04:16:53.758Z,4.10
2019-01-18T04:19:21.022Z,4.00
2019-01-18T04:21:48.303Z,4.33
2019-01-18T04:24:15.551Z,4.00
2019-01-18T04:26:42.710Z,4.87
2019-01-18T04:29:09.976Z,3.90
2019-01-18T04:31:37.218Z,6.13
2019-01-18T04:34:04.453Z,5.83
2019-01-18T04:36:31.732Z,4.07
2019-01-18T04:38:58.959Z,7.17
2019-01-18T04:41:26.218Z,3.60
2019-01-18T04:43:53.467Z,4.70
2019-01-18T04:46:20.838Z,4.13
2019-01-18T04:48:48.163Z,3.63
2019-01-18T04:51:15.399Z,5.87
2019-01-18T04:53:42.529Z,3.90
2019-01-18T04:56:09.807Z,4.47
2019-01-18T04:58:36.948Z,5.10
2019-01-18T05:01:04.158Z,3.57
2019-01-18T05:03:31.337Z,6.37
2019-01-18T05:05:58.454Z,4.00
2019-01-18T05:08:25.709Z,4.03
2019-01-18T05:10:52.824Z,3.80
2019-01-18T05:13:20.080Z,4.23
2019-01-18T05:15:47.276Z,4.40
2019-01-18T05:18:14.443Z,3.53
2019-01-18T05:20:41.563Z,3.67
2019-01-18T05:23:08.800Z,4.43
2019-01-18T05:25:36.046Z,3.70
2019-01-18T05:28:03.302Z,4.97
2019-01-18T05:30:30.539Z,5.63
2019-01-18T05:32:57.690Z,6.43
2019-01-18T05:35:25.113Z,3.87
2019-01-18T05:37:52.339Z,6.67
2019-01-18T05:40:19.620Z,2.97
2019-01-18T05:42:47.082Z,6.37
2019-01-18T05:45:15.889Z,5.07
2019-01-18T05:47:43.154Z,3.80
2019-01-18T05:50:15.308Z,3.97
2019-01-18T05:52:42.597Z,6.03
2019-01-18T05:55:10.041Z,5.40
2019-01-18T05:57:37.310Z,7.13
2019-01-18T06:00:09.192Z,4.00
2019-01-18T06:02:36.451Z,5.17
2019-01-18T06:05:06.447Z,5.53
2019-01-18T06:07:33.721Z,4.53
2019-01-18T06:10:00.988Z,4.43
2019-01-18T06:12:28.112Z,5.70
2019-01-18T06:14:55.367Z,4.23
2019-01-18T06:17:22.512Z,4.57
2019-01-18T06:19:49.796Z,6.37
2019-01-18T06:22:17.046Z,4.80
2019-01-18T06:24:44.331Z,4.03
2019-01-18T06:27:11.491Z,4.17
2019-01-18T06:29:38.822Z,6.13
2019-01-18T06:32:05.954Z,5.43
2019-01-18T06:34:33.135Z,3.77
2019-01-18T06:37:00.398Z,5.63
2019-01-18T06:39:27.635Z,5.60
2019-01-18T06:41:55.044Z,5.47
2019-01-18T06:44:22.825Z,5.10
2019-01-18T06:46:50.528Z,11.20
2019-01-18T06:49:18.390Z,5.30
2019-01-18T06:51:45.670Z,5.20
2019-01-18T06:54:12.947Z,6.53
2019-01-18T06:56:40.093Z,7.13
2019-01-18T06:59:07.367Z,5.70
2019-01-18T07:01:34.582Z,3.73
2019-01-18T07:04:01.887Z,6.83
2019-01-18T07:06:29.031Z,5.90
2019-01-18T07:08:56.285Z,5.60
2019-01-18T07:11:23.565Z,4.80
2019-01-18T07:13:50.865Z,5.73
2019-01-18T07:16:18.083Z,7.23
2019-01-18T07:18:45.363Z,7.70
2019-01-18T07:21:12.607Z,8.23
2019-01-18T07:23:39.755Z,7.80
2019-01-18T07:26:06.889Z,4.37
2019-01-18T07:28:34.870Z,6.43
2019-01-18T07:31:02.129Z,4.70
2019-01-18T07:33:29.306Z,4.33
2019-01-18T07:35:56.459Z,4.70
2019-01-18T07:38:23.700Z,5.40
2019-01-18T07:40:51.084Z,5.17
2019-01-18T07:43:18.349Z,3.10
2019-01-18T07:45:45.798Z,3.37
2019-01-18T07:48:13.152Z,5.00
2019-01-18T07:50:40.320Z,4.97
2019-01-18T07:53:07.558Z,3.53
2019-01-18T07:55:34.792Z,4.10
2019-01-18T07:58:02.053Z,4.03
2019-01-18T08:00:29.538Z,4.03
2019-01-18T08:02:56.922Z,8.30
2019-01-18T08:05:26.409Z,3.23
2019-01-18T08:07:53.635Z,8.63
2019-01-18T08:10:20.939Z,5.40
2019-01-18T08:12:48.171Z,2.97
2019-01-18T08:15:19.967Z,5.93
2019-01-18T08:17:47.220Z,5.20
2019-01-18T08:20:15.761Z,5.67
2019-01-18T08:22:43.210Z,3.70
2019-01-18T08:25:11.383Z,4.67
2019-01-18T08:27:38.622Z,4.33
2019-01-18T08:30:09.115Z,4.07
2019-01-18T08:32:36.397Z,7.83
2019-01-18T08:35:04.117Z,5.33
2019-01-18T08:37:31.308Z,5.23
2019-01-18T08:39:58.575Z,3.43
2019-01-18T08:42:25.730Z,4.20
2019-01-18T08:44:53.051Z,7.10
2019-01-18T08:47:20.331Z,3.07
2019-01-18T08:49:47.568Z,4.47
2019-01-18T08:52:14.824Z,5.00
2019-01-18T08:54:42.092Z,4.37
2019-01-18T08:57:09.358Z,5.80
2019-01-18T08:59:36.636Z,3.33
2019-01-18T09:02:03.865Z,4.97
2019-01-18T09:04:31.121Z,4.80
2019-01-18T09:06:58.393Z,6.83
2019-01-18T09:09:25.653Z,59.20
2019-01-18T09:11:52.869Z,9.07
2019-01-18T09:14:20.123Z,6.27
2019-01-18T09:16:47.376Z,6.50
2019-01-18T09:19:14.625Z,4.20
2019-01-18T09:21:41.869Z,6.43
2019-01-18T09:24:08.990Z,5.37
2019-01-18T09:26:36.247Z,5.57
2019-01-18T09:29:03.594Z,8.03
2019-01-18T09:31:30.750Z,4.63
2019-01-18T09:33:57.885Z,7.23
2019-01-18T09:36:25.064Z,5.67
2019-01-18T09:38:52.306Z,3.80
2019-01-18T09:41:19.573Z,3.13
2019-01-18T09:43:46.813Z,6.93
2019-01-18T09:46:14.043Z,13.17
2019-01-18T09:48:41.173Z,5.97
2019-01-18T09:51:08.326Z,5.80
2019-01-18T09:53:35.569Z,8.53
2019-01-18T09:56:03.001Z,5.63
2019-01-18T09:58:30.166Z,6.47
2019-01-18T10:00:57.424Z,4.10
2019-01-18T10:03:24.647Z,6.00
2019-01-18T10:05:51.921Z,4.70
2019-01-18T10:08:19.228Z,4.47
2019-01-18T10:10:46.449Z,5.20
2019-01-18T10:13:13.774Z,5.67
2019-01-18T10:15:43.022Z,4.07
2019-01-18T10:18:10.221Z,5.40
2019-01-18T10:20:37.466Z,4.50
2019-01-18T10:23:04.843Z,6.87
2019-01-18T10:25:32.026Z,5.77
2019-01-18T10:28:00.521Z,6.07
2019-01-18T10:30:28.014Z,7.13
2019-01-18T10:32:55.411Z,7.67
2019-01-18T10:35:22.853Z,6.77
2019-01-18T10:37:50.101Z,4.63
2019-01-18T10:40:17.589Z,6.13
2019-01-18T10:42:45.044Z,8.27
2019-01-18T10:45:12.985Z,5.87
2019-01-18T10:47:40.225Z,5.27
2019-01-18T10:50:10.486Z,4.77
2019-01-18T10:52:37.763Z,8.10
2019-01-18T10:55:05.534Z,5.80
2019-01-18T10:57:32.810Z,4.30
2019-01-18T10:59:59.964Z,6.17
2019-01-18T11:02:27.209Z,4.53
2019-01-18T11:04:54.387Z,4.80
2019-01-18T11:07:21.669Z,4.27
2019-01-18T11:09:48.928Z,3.97
2019-01-18T11:12:16.198Z,3.57
2019-01-18T11:14:43.427Z,3.60
2019-01-18T11:17:10.738Z,5.93
2019-01-18T11:19:37.871Z,3.27
2019-01-18T11:22:05.056Z,4.53
2019-01-18T11:24:32.316Z,2.53
2019-01-18T11:26:59.579Z,2.87
2019-01-18T11:29:26.982Z,3.87
2019-01-18T11:31:54.330Z,6.43
2019-01-18T11:34:21.486Z,2.73
2019-01-18T11:36:48.723Z,4.83
2019-01-18T11:39:16.114Z,4.47
2019-01-18T11:41:43.353Z,4.70
2019-01-18T11:44:10.660Z,3.67
2019-01-18T11:46:37.912Z,4.40
2019-01-18T11:49:05.190Z,6.53
2019-01-18T11:51:32.313Z,6.60
2019-01-18T11:53:59.609Z,7.73
2019-01-18T11:56:26.849Z,6.70
2019-01-18T11:58:54.095Z,6.97
2019-01-18T12:01:21.278Z,8.70
2019-01-18T12:03:48.487Z,6.00
2019-01-18T12:06:15.761Z,9.50
2019-01-18T12:08:43.010Z,8.03
2019-01-18T12:11:10.359Z,6.70
2019-01-18T12:13:37.653Z,8.33
2019-01-18T12:16:04.969Z,7.33
2019-01-18T12:18:32.205Z,7.73
2019-01-18T12:20:59.404Z,8.17
2019-01-18T12:23:26.684Z,10.57
2019-01-18T12:25:53.949Z,7.20
2019-01-18T12:28:22.559Z,4.63
2019-01-18T12:31:00.440Z,9.07
2019-01-18T12:33:29.713Z,5.07
2019-01-18T12:36:19.843Z,7.30
2019-01-18T12:38:51.051Z,6.27
2019-01-18T12:41:20.082Z,5.97
2019-01-18T12:43:48.644Z,8.50
2019-01-18T12:46:16.970Z,9.03
2019-01-18T12:48:44.334Z,4.23
2019-01-18T12:51:11.662Z,5.87
2019-01-18T12:53:38.953Z,7.20
2019-01-18T12:56:06.202Z,5.17
2019-01-18T12:58:33.462Z,5.83
2019-01-18T13:01:00.752Z,6.70
2019-01-18T13:03:27.991Z,5.97
2019-01-18T13:05:55.179Z,7.50
2019-01-18T13:08:22.421Z,5.03
2019-01-18T13:10:49.598Z,6.90
2019-01-18T13:13:16.831Z,5.13
2019-01-18T13:16:15.051Z,4.63
2019-01-18T13:18:44.569Z,8.13
2019-01-18T13:21:11.862Z,5.03
2019-01-18T13:23:39.145Z,3.83
2019-01-18T13:26:06.373Z,4.40
2019-01-18T13:28:33.636Z,3.90
2019-01-18T13:31:00.887Z,3.87
2019-01-18T13:33:28.142Z,6.87
2019-01-18T13:35:55.393Z,6.43
2019-01-18T13:38:22.684Z,2.87
2019-01-18T13:40:49.946Z,5.47
2019-01-18T13:43:17.237Z,4.33
2019-01-18T13:45:44.594Z,6.00
2019-01-18T13:48:11.873Z,5.70
2019-01-18T13:50:39.244Z,5.50
2019-01-18T13:53:06.471Z,6.83
2019-01-18T13:55:33.627Z,7.27
2019-01-18T13:58:00.882Z,3.83
2019-01-18T14:00:28.156Z,6.33
2019-01-18T14:02:55.544Z,5.90
2019-01-18T14:05:22.801Z,5.13
2019-01-18T14:07:53.466Z,4.37
2019-01-18T14:10:21.698Z,3.73
2019-01-18T14:12:48.942Z,6.80
2019-01-18T14:15:18.554Z,6.40
2019-01-18T14:17:45.808Z,7.57
2019-01-18T14:20:13.293Z,4.17
2019-01-18T14:22:40.566Z,5.07
2019-01-18T14:25:08.358Z,4.50
2019-01-18T14:27:35.531Z,5.90
2019-01-18T14:30:05.330Z,5.80
2019-01-18T14:32:32.591Z,5.77
2019-01-18T14:34:59.723Z,6.77
2019-01-18T14:37:26.891Z,4.20
2019-01-18T14:39:54.111Z,5.80
2019-01-18T14:42:21.290Z,5.27
2019-01-18T14:44:48.511Z,5.17
2019-01-18T14:47:15.747Z,6.67
2019-01-18T14:49:43.010Z,7.00
2019-01-18T14:52:10.317Z,9.33
2019-01-18T14:54:37.589Z,9.80
2019-01-18T14:57:04.836Z,14.87
2019-01-18T14:59:32.315Z,9.77
2019-01-18T15:01:59.496Z,11.97
2019-01-18T15:04:26.687Z,8.37
2019-01-18T15:06:55.717Z,13.10
2019-01-18T15:09:22.970Z,9.37
2019-01-18T15:11:50.198Z,10.70
2019-01-18T15:14:17.459Z,13.20
2019-01-18T15:16:44.666Z,11.07
2019-01-18T15:19:11.902Z,9.73
2019-01-18T15:21:39.150Z,9.23
2019-01-18T15:24:06.390Z,10.27
2019-01-18T15:26:33.580Z,8.87
2019-01-18T15:29:00.820Z,10.53
2019-01-18T15:31:28.069Z,8.80
2019-01-18T15:33:56.357Z,11.37
2019-01-18T15:36:23.658Z,8.03
2019-01-18T15:38:50.856Z,9.27
2019-01-18T15:41:18.131Z,14.10
2019-01-18T15:43:45.355Z,10.43
2019-01-18T15:46:12.636Z,12.80
2019-01-18T15:48:39.960Z,14.30
2019-01-18T15:51:07.205Z,15.27
2019-01-18T15:53:34.495Z,13.50
2019-01-18T15:56:03.534Z,17.77
2019-01-18T15:58:30.784Z,12.30
2019-01-18T16:00:58.047Z,17.53
2019-01-18T16:03:25.271Z,15.70
2019-01-18T16:05:52.529Z,14.20
2019-01-18T16:08:19.785Z,15.30
2019-01-18T16:10:47.043Z,18.53
2019-01-18T16:13:14.318Z,17.77
2019-01-18T16:16:07.111Z,15.93
2019-01-18T16:18:34.361Z,14.33
2019-01-18T16:21:02.637Z,16.83
2019-01-18T16:23:29.983Z,19.63
2019-01-18T16:25:57.211Z,26.77
2019-01-18T16:28:24.451Z,22.47
2019-01-18T16:30:51.613Z,30.43
2019-01-18T16:33:23.338Z,26.33
2019-01-18T16:35:48.031Z,28.80
2019-01-18T16:38:15.181Z,27.47
2019-01-18T16:40:42.424Z,23.07
2019-01-18T16:43:13.549Z,25.83
2019-01-18T16:45:40.770Z,26.60
2019-01-18T16:48:07.940Z,29.80
2019-01-18T16:50:35.158Z,32.03
2019-01-18T16:53:02.610Z,26.10
2019-01-18T16:55:29.871Z,33.90
2019-01-18T16:57:57.144Z,30.73
2019-01-18T17:00:30.413Z,25.50
2019-01-18T17:02:57.600Z,24.57
2019-01-18T17:05:24.896Z,24.33
2019-01-18T17:07:52.185Z,25.90
2019-01-18T17:10:19.574Z,19.90
2019-01-18T17:12:46.829Z,19.60
2019-01-18T17:15:14.133Z,25.07
2019-01-18T17:17:41.494Z,27.07
2019-01-18T17:20:18.406Z,24.77
2019-01-18T17:22:45.801Z,23.53
2019-01-18T17:25:13.186Z,17.53
2019-01-18T17:27:40.358Z,19.90
2019-01-18T17:30:10.739Z,21.33
2019-01-18T17:32:38.041Z,20.90
2019-01-18T17:35:09.361Z,16.43
2019-01-18T17:37:39.655Z,17.10
2019-01-18T17:40:46.615Z,15.57
2019-01-18T17:43:39.633Z,16.10
2019-01-18T17:46:46.870Z,20.73
2019-01-18T17:50:03.974Z,19.40
2019-01-18T17:53:11.758Z,19.33
2019-01-18T17:56:03.300Z,22.80
2019-01-18T17:58:55.250Z,19.63
2019-01-18T18:02:06.944Z,22.53
2019-01-18T18:05:27.866Z,21.77
2019-01-18T18:08:22.032Z,26.93
2019-01-18T18:11:47.853Z,25.37
2019-01-18T18:14:38.871Z,18.87
2019-01-18T18:17:22.507Z,20.93
2019-01-18T18:20:52.753Z,26.77
2019-01-18T18:23:51.475Z,22.47
2019-01-18T18:26:59.245Z,20.57
2019-01-18T18:30:04.119Z,21.67
2019-01-18T18:33:21.882Z,25.10
2019-01-18T18:36:51.971Z,23.90
2019-01-18T18:40:00.910Z,19.10
2019-01-18T18:42:51.486Z,17.93
2019-01-18T18:45:47.607Z,18.07
2019-01-18T18:48:37.961Z,18.10
2019-01-18T18:51:53.103Z,20.27
2019-01-18T18:54:58.440Z,16.47
2019-01-18T18:58:00.600Z,16.13
2019-01-18T19:01:11.265Z,20.10
2019-01-18T19:04:35.686Z,18.23
2019-01-18T19:07:41.890Z,14.27
2019-01-18T19:10:50.826Z,15.07
2019-01-18T19:13:51.057Z,18.60
2019-01-18T19:16:48.238Z,14.40
2019-01-18T19:19:51.701Z,14.20
2019-01-18T19:22:36.826Z,22.70
2019-01-18T19:25:42.625Z,19.13
2019-01-18T19:28:47.432Z,18.70
2019-01-18T19:32:11.227Z,23.70
2019-01-18T19:34:57.877Z,17.70
2019-01-18T19:38:01.594Z,17.20
2019-01-18T19:40:50.917Z,14.60
2019-01-18T19:43:43.475Z,12.57
2019-01-18T19:46:57.211Z,10.73
2019-01-18T19:50:24.106Z,9.13
2019-01-18T19:53:40.731Z,12.97
2019-01-18T19:57:07.730Z,11.63
2019-01-18T20:00:12.729Z,12.73
2019-01-18T20:03:01.705Z,12.90
2019-01-18T20:05:56.771Z,12.10
2019-01-18T20:09:05.102Z,12.63
2019-01-18T20:11:55.823Z,15.23
2019-01-18T20:14:43.186Z,15.07
2019-01-18T20:17:41.654Z,19.83
2019-01-18T20:21:05.882Z,18.83
2019-01-18T20:24:16.767Z,19.67
2019-01-18T20:27:38.160Z,17.70
2019-01-18T20:30:50.065Z,16.70
2019-01-18T20:34:11.080Z,17.13
2019-01-18T20:37:03.652Z,19.90
2019-01-18T20:40:17.318Z,21.20
2019-01-18T20:43:17.114Z,22.13
2019-01-18T20:46:06.573Z,21.13
2019-01-18T20:48:59.774Z,20.33
2019-01-18T20:51:59.692Z,19.93
2019-01-18T20:55:12.355Z,20.40
2019-01-18T20:58:34.452Z,19.00
2019-01-18T21:01:44.617Z,20.47
2019-01-18T21:04:29.042Z,24.30
2019-01-18T21:07:26.450Z,33.73
2019-01-18T21:10:35.621Z,23.13
2019-01-18T21:13:59.939Z,18.53
2019-01-18T21:17:14.799Z,18.03
2019-01-18T21:20:18.404Z,19.63
2019-01-18T21:23:15.381Z,21.07
2019-01-18T21:26:09.876Z,19.20
2019-01-18T21:29:13.491Z,21.63
2019-01-18T21:32:06.706Z,20.47
2019-01-18T21:35:11.499Z,22.70
2019-01-18T21:37:59.074Z,25.83
2019-01-18T21:41:02.426Z,21.37
2019-01-18T21:44:26.496Z,20.67
2019-01-18T21:47:36.579Z,23.20
2019-01-18T21:50:31.898Z,23.93
2019-01-18T21:53:28.808Z,20.50
2019-01-18T21:56:43.820Z,23.90
2019-01-18T21:59:54.846Z,25.33
2019-01-18T22:02:39.446Z,23.97
2019-01-18T22:05:43.694Z,25.67
2019-01-18T22:08:43.290Z,28.40
2019-01-18T22:12:07.498Z,20.70
2019-01-18T22:14:59.762Z,24.73
2019-01-18T22:18:05.600Z,25.47
2019-01-18T22:21:08.378Z,21.87
2019-01-18T22:23:44.447Z,33.83
2019-01-18T22:26:38.271Z,28.20
2019-01-18T22:29:56.350Z,67.57
2019-01-18T22:32:51.881Z,93.47
2019-01-18T22:35:47.910Z,34.40
2019-01-18T22:39:03.884Z,30.77
2019-01-18T22:42:07.692Z,27.57
2019-01-18T22:45:11.357Z,20.40
2019-01-18T22:48:10.349Z,31.50
2019-01-18T22:51:19.371Z,30.63
2019-01-18T22:54:30.466Z,24.60
2019-01-18T22:57:38.135Z,23.07
2019-01-18T23:00:56.765Z,24.93
2019-01-18T23:04:09.141Z,25.93
2019-01-18T23:07:10.381Z,21.17
2019-01-18T23:10:15.772Z,22.13
2019-01-18T23:12:55.682Z,21.50
2019-01-18T23:16:22.998Z,21.57
2019-01-18T23:18:58.469Z,20.07
2019-01-18T23:22:21.630Z,20.73
2019-01-18T23:25:21.108Z,26.60
2019-01-18T23:28:27.211Z,19.60
2019-01-18T23:31:16.417Z,21.77
2019-01-18T23:33:52.240Z,21.37
2019-01-18T23:36:37.060Z,22.03
2019-01-18T23:39:40.238Z,21.07
2019-01-18T23:42:51.981Z,22.00
2019-01-18T23:45:42.586Z,34.47
2019-01-18T23:48:42.945Z,40.13
2019-01-18T23:51:37.227Z,25.90
2019-01-18T23:54:47.807Z,27.57
2019-01-18T23:57:25.429Z,26.37
